Time;durP1;ratioP1;P1;durP2;ratioP2;P2;SDS_P1;SDS_P2;PMS_P1;PMS_P2;Temp;Humidity;BMP_temperature;BMP_pressure;BME280_temperature;BME280_humidity;BME280_pressure;Samples;Min_cycle;Max_cycle;Signal;HPM_P1;HPM_P2
2022/06/21 00:02:17;;;;;;;11.33;4.95;;;;;;;19.67;100.00;99059.84;1527478;93;21062;-80
2022/06/21 00:04:44;;;;;;;11.38;5.15;;;;;;;19.66;100.00;99054.05;1582961;90;21083;-78
2022/06/21 00:07:21;;;;;;;13.85;5.20;;;;;;;19.61;100.00;99049.88;1559929;90;21093;-78
2022/06/21 00:09:50;;;;;;;13.93;5.42;;;;;;;19.57;100.00;99050.11;1590804;90;21078;-79
2022/06/21 00:12:17;;;;;;;11.15;4.60;;;;;;;19.52;100.00;99041.81;1560029;90;21074;-78
2022/06/21 00:14:46;;;;;;;11.63;4.92;;;;;;;19.45;100.00;99036.51;1590963;90;21058;-78
2022/06/21 00:17:13;;;;;;;10.25;4.90;;;;;;;19.40;100.00;99029.59;1667866;86;20977;-77
2022/06/21 00:19:43;;;;;;;9.43;4.85;;;;;;;19.36;100.00;99028.45;1629161;87;21092;-78
2022/06/21 00:22:17;;;;;;;10.18;4.97;;;;;;;19.31;100.00;99019.59;1673863;86;21122;-79
2022/06/21 00:24:45;;;;;;;8.23;4.45;;;;;;;19.27;100.00;99015.72;1629408;87;21033;-79
2022/06/21 00:27:15;;;;;;;7.50;4.47;;;;;;;19.23;100.00;99014.57;1674172;86;21076;-79
2022/06/21 00:29:43;;;;;;;9.70;4.90;;;;;;;19.20;100.00;99009.59;1587996;90;21080;-79
2022/06/21 00:32:18;;;;;;;6.90;4.22;;;;;;;19.19;100.00;99002.98;1603700;89;21078;-78
2022/06/21 00:34:46;;;;;;;7.25;4.25;;;;;;;19.19;100.00;99002.44;1603780;89;21587;-78
2022/06/21 00:37:20;;;;;;;8.63;4.50;;;;;;;19.21;100.00;98996.70;1604145;89;21082;-79
2022/06/21 00:39:48;;;;;;;5.80;3.90;;;;;;;19.21;100.00;99000.82;1657817;86;21006;-78
2022/06/21 00:42:25;;;;;;;8.23;4.30;;;;;;;19.21;100.00;98995.34;1635567;88;21070;-78
2022/06/21 00:45:04;;;;;;;5.95;4.00;;;;;;;19.20;100.00;99001.37;1635363;88;21038;-79
2022/06/21 00:47:39;;;;;;;7.95;4.03;;;;;;;19.20;100.00;98998.62;1635532;88;21143;-80
2022/06/21 00:50:15;;;;;;;7.05;3.90;;;;;;;19.16;100.00;98994.75;1635510;88;21022;-80
2022/06/21 00:52:58;;;;;;;9.13;4.37;;;;;;;19.13;100.00;98992.50;1512391;95;21705;-79
2022/06/21 00:55:52;;;;;;;5.42;4.08;;;;;;;19.08;100.00;98992.43;1512617;95;21107;-78
2022/06/21 00:58:23;;;;;;;6.83;4.30;;;;;;;19.03;100.00;98989.61;1492063;95;21071;-79
2022/06/21 01:01:07;;;;;;;5.62;4.05;;;;;;;19.00;100.00;98981.89;1463957;97;21109;-80
2022/06/21 01:03:47;;;;;;;7.65;4.20;;;;;;;18.96;100.00;98977.46;1462156;97;21121;-80
2022/06/21 01:06:22;;;;;;;21.68;4.75;;;;;;;18.92;100.00;98977.13;1486615;95;21180;-78
2022/06/21 01:08:54;;;;;;;6.40;3.95;;;;;;;18.85;100.00;98969.64;1466449;98;21182;-79
2022/06/21 01:11:25;;;;;;;6.15;4.05;;;;;;;18.79;100.00;98971.45;1482253;97;21122;-80
2022/06/21 01:13:53;;;;;;;9.70;4.03;;;;;;;18.72;100.00;98968.05;1485997;97;21063;-80
2022/06/21 01:16:21;;;;;;;6.58;3.87;;;;;;;18.68;100.00;98957.84;1480259;97;21150;-79
2022/06/21 01:18:48;;;;;;;9.80;4.67;;;;;;;18.65;100.00;98960.55;1479446;97;21173;-80
2022/06/21 01:21:16;;;;;;;6.47;4.15;;;;;;;18.64;100.00;98951.22;1453319;99;21612;-79
2022/06/21 01:24:03;;;;;;;8.18;4.08;;;;;;;18.61;100.00;98955.30;1470867;97;21113;-80
2022/06/21 01:26:47;;;;;;;8.30;4.37;;;;;;;18.58;100.00;98948.95;1459166;97;21148;-80
2022/06/21 01:29:25;;;;;;;8.68;4.05;;;;;;;18.55;100.00;98955.73;1481444;97;21236;-79
2022/06/21 01:31:54;;;;;;;8.88;4.50;;;;;;;18.54;100.00;98947.80;1472685;97;21116;-80
2022/06/21 01:34:23;;;;;;;6.12;3.90;;;;;;;18.52;100.00;98944.45;1438041;100;21115;-80
2022/06/21 01:36:55;;;;;;;6.45;3.90;;;;;;;18.49;100.00;98943.06;1472318;98;21162;-79
2022/06/21 01:39:29;;;;;;;6.50;3.90;;;;;;;18.46;100.00;98944.92;1410978;102;21217;-80
2022/06/21 01:42:07;;;;;;;5.62;3.90;;;;;;;18.42;100.00;98939.66;1403816;101;21074;-80
2022/06/21 01:44:39;;;;;;;6.72;4.10;;;;;;;18.37;100.00;98932.19;1436383;100;21043;-77
2022/06/21 01:47:10;;;;;;;7.45;4.22;;;;;;;18.33;100.00;98931.59;1429267;100;21102;-80
2022/06/21 01:49:37;;;;;;;6.90;4.20;;;;;;;18.29;100.00;98930.41;1452464;98;21174;-80
2022/06/21 01:52:18;;;;;;;8.60;4.30;;;;;;;18.24;100.00;98928.95;1461296;97;21067;-80
2022/06/21 01:54:51;;;;;;;8.88;4.08;;;;;;;18.21;100.00;98924.82;1472710;98;21122;-79
2022/06/21 01:57:18;;;;;;;7.28;4.28;;;;;;;18.18;100.00;98922.05;1472692;97;21102;-80
2022/06/21 01:59:47;;;;;;;9.93;4.40;;;;;;;18.15;100.00;98921.17;1472364;98;21207;-79
2022/06/21 02:02:24;;;;;;;8.18;3.92;;;;;;;18.13;100.00;98923.34;1472379;96;21099;-80
2022/06/21 02:05:09;;;;;;;10.30;4.08;;;;;;;18.13;100.00;98921.11;1469713;97;21072;-80
2022/06/21 02:07:52;;;;;;;6.90;3.62;;;;;;;18.12;100.00;98919.47;1461537;97;21207;-80
2022/06/21 02:10:30;;;;;;;7.45;3.80;;;;;;;18.13;100.00;98918.38;1461935;98;21144;-78
2022/06/21 02:13:06;;;;;;;6.72;4.20;;;;;;;18.12;100.00;98916.19;1478465;96;21043;-78
2022/06/21 02:15:46;;;;;;;6.53;3.80;;;;;;;18.09;100.00;98912.58;1501136;96;21092;-79
2022/06/21 02:18:14;;;;;;;7.00;4.33;;;;;;;18.07;100.00;98914.73;1503128;95;21114;-79
2022/06/21 02:21:04;;;;;;;7.75;4.40;;;;;;;18.05;100.00;98914.16;1488868;95;21218;-79
2022/06/21 02:23:32;;;;;;;5.70;4.10;;;;;;;18.05;100.00;98911.42;1483476;96;21186;-79
2022/06/21 02:25:58;;;;;;;7.87;4.08;;;;;;;18.04;100.00;98908.38;1483460;96;21111;-79
2022/06/21 02:28:28;;;;;;;9.95;4.50;;;;;;;18.02;100.00;98903.70;1501730;94;21086;-78
2022/06/21 02:30:56;;;;;;;11.18;4.33;;;;;;;18.01;100.00;98897.41;1541199;93;21110;-78
2022/06/21 02:33:28;;;;;;;8.28;4.10;;;;;;;18.01;100.00;98898.78;1548490;93;21089;-79
2022/06/21 02:36:07;;;;;;;5.43;4.17;;;;;;;18.02;100.00;98892.25;1541656;93;21102;-79
2022/06/21 02:38:55;;;;;;;6.92;4.05;;;;;;;18.02;100.00;98890.03;1538668;93;21096;-79
2022/06/21 02:41:36;;;;;;;7.58;4.12;;;;;;;18.01;100.00;98887.02;1534432;92;21139;-78
2022/06/21 02:44:26;;;;;;;7.45;4.17;;;;;;;18.02;100.00;98884.56;1599237;90;21046;-79
2022/06/21 02:46:57;;;;;;;7.35;3.98;;;;;;;18.00;100.00;98871.67;1600688;90;21042;-80
2022/06/21 02:49:34;;;;;;;5.83;3.87;;;;;;;18.00;100.00;98875.23;1600853;90;21550;-78
2022/06/21 02:52:14;;;;;;;6.35;3.90;;;;;;;18.01;100.00;98877.45;1599372;90;21066;-79
2022/06/21 02:55:26;;;;;;;7.92;3.92;;;;;;;18.02;100.00;98879.09;1600767;90;21069;-80
2022/06/21 02:58:02;;;;;;;9.30;4.10;;;;;;;18.04;100.00;98875.56;1580043;90;21071;-79
2022/06/21 03:00:30;;;;;;;10.85;4.78;;;;;;;18.09;100.00;98877.56;1580489;90;21137;-79
2022/06/21 03:03:00;;;;;;;10.20;4.53;;;;;;;18.13;100.00;98877.34;1600780;90;21603;-79
2022/06/21 03:05:27;;;;;;;8.85;4.80;;;;;;;18.15;100.00;98880.14;1601047;90;21153;-79
2022/06/21 03:07:58;;;;;;;9.93;4.97;;;;;;;18.20;100.00;98875.27;1601377;90;21105;-80
2022/06/21 03:10:29;;;;;;;16.20;5.80;;;;;;;18.24;100.00;98875.08;1600950;90;21065;-80
2022/06/21 03:13:01;;;;;;;12.88;5.15;;;;;;;18.29;100.00;98869.70;1631056;88;21075;-79
2022/06/21 03:15:31;;;;;;;10.23;5.00;;;;;;;18.34;100.00;98870.30;1648236;86;21460;-80
2022/06/21 03:18:02;;;;;;;14.93;5.80;;;;;;;18.37;100.00;98862.41;1600234;88;21557;-80
2022/06/21 03:20:30;;;;;;;12.37;5.35;;;;;;;18.41;100.00;98869.58;1672034;86;21038;-80
2022/06/21 03:22:57;;;;;;;12.25;5.33;;;;;;;18.45;100.00;98868.02;1671944;86;20979;-79
2022/06/21 03:25:40;;;;;;;13.60;5.75;;;;;;;18.47;100.00;98856.27;1672239;86;21507;-80
2022/06/21 03:28:30;;;;;;;13.72;5.72;;;;;;;18.53;100.00;98859.36;1671168;86;21038;-80
2022/06/21 03:31:05;;;;;;;15.30;6.50;;;;;;;18.59;100.00;98863.84;1645156;87;21052;-80
2022/06/21 03:33:35;;;;;;;16.20;6.72;;;;;;;18.67;100.00;98864.48;1647241;87;21068;-80
2022/06/21 03:36:07;;;;;;;26.10;8.75;;;;;;;18.76;100.00;98856.11;1624692;87;21032;-79
2022/06/21 03:38:36;;;;;;;24.72;9.55;;;;;;;18.85;100.00;98852.42;1645571;87;21465;-79
2022/06/21 03:43:57;;;;;;;20.25;8.13;;;;;;;19.01;100.00;98843.86;1621677;86;21073;-80
2022/06/21 03:46:29;;;;;;;15.75;6.62;;;;;;;19.08;100.00;98843.94;1659338;86;21057;-80
2022/06/21 03:49:01;;;;;;;19.65;7.40;;;;;;;19.20;100.00;98848.47;1659263;86;21069;-79
2022/06/21 03:51:39;;;;;;;20.08;7.50;;;;;;;19.29;100.00;98844.19;1621970;86;21002;-79
2022/06/21 03:54:34;;;;;;;17.85;7.15;;;;;;;19.39;100.00;98848.41;1659371;86;21098;-79
2022/06/21 03:57:09;;;;;;;16.50;7.53;;;;;;;19.50;100.00;98848.79;1637770;86;21622;-80
2022/06/21 03:59:48;;;;;;;18.27;7.60;;;;;;;19.61;100.00;98851.09;1635976;88;21019;-81
2022/06/21 04:02:20;;;;;;;21.52;8.53;;;;;;;19.70;100.00;98844.04;1611288;88;21031;-80
2022/06/21 04:04:57;;;;;;;18.35;7.67;;;;;;;19.80;100.00;98846.64;1585901;91;21556;-79
2022/06/21 04:07:38;;;;;;;15.72;6.60;;;;;;;19.88;100.00;98859.34;1540281;93;21069;-80
2022/06/21 04:10:24;;;;;;;15.25;7.12;;;;;;;19.96;100.00;98855.28;1570777;91;21093;-81
2022/06/21 04:13:14;;;;;;;17.50;6.70;;;;;;;20.05;100.00;98859.19;1575515;85;77436;-80
2022/06/21 04:15:55;;;;;;;18.35;6.85;;;;;;;20.16;100.00;98864.77;1662849;86;21121;-80
2022/06/21 04:18:56;;;;;;;13.20;5.62;;;;;;;20.28;100.00;98875.83;1672526;86;21045;-80
2022/06/21 04:21:49;;;;;;;12.58;5.72;;;;;;;20.40;100.00;98869.34;1694691;85;21503;-76
2022/06/21 04:24:24;;;;;;;14.23;5.95;;;;;;;20.56;100.00;98880.70;1617763;88;21047;-79
2022/06/21 04:26:56;;;;;;;10.13;5.22;;;;;;;20.75;100.00;98884.39;1582504;91;21396;-84
2022/06/21 04:29:48;;;;;;;12.82;6.40;;;;;;;20.94;100.00;98893.02;1582739;90;21115;-83
2022/06/21 04:32:38;;;;;;;20.32;7.55;;;;;;;21.17;100.00;98894.50;1550152;93;21052;-85
2022/06/21 04:35:10;;;;;;;23.40;8.05;;;;;;;21.41;100.00;98899.81;1533397;94;21082;-82
2022/06/21 04:37:59;;;;;;;17.92;6.72;;;;;;;21.67;100.00;98903.20;1552165;93;21062;-82
2022/06/21 04:40:42;;;;;;;14.60;6.95;;;;;;;21.92;100.00;98906.55;1525645;94;21064;-82
2022/06/21 04:43:29;;;;;;;16.23;7.15;;;;;;;22.19;100.00;98909.88;1550212;93;21071;-82
2022/06/21 04:46:20;;;;;;;13.48;6.37;;;;;;;22.48;100.00;98911.27;1532882;94;21078;-82
2022/06/21 04:48:58;;;;;;;13.03;5.97;;;;;;;22.74;100.00;98913.44;1513302;95;21083;-80
2022/06/21 04:51:36;;;;;;;14.10;6.20;;;;;;;23.01;100.00;98915.84;1494854;95;21143;-81
2022/06/21 04:54:13;;;;;;;12.47;5.53;;;;;;;23.28;100.00;98911.38;1518573;95;21085;-82
2022/06/21 04:57:03;;;;;;;12.25;5.40;;;;;;;23.54;100.00;98925.60;1470206;96;21125;-81
2022/06/21 04:59:53;;;;;;;10.60;5.40;;;;;;;23.78;100.00;98932.63;1462049;97;21105;-81
2022/06/21 05:02:31;;;;;;;10.35;5.20;;;;;;;24.03;100.00;98931.69;1469738;98;21130;-79
2022/06/21 05:05:17;;;;;;;12.03;5.70;;;;;;;24.28;100.00;98933.99;1429938;100;21656;-77
2022/06/21 05:07:54;;;;;;;7.53;4.45;;;;;;;24.52;100.00;98925.75;1399556;103;21644;-76
2022/06/21 05:10:25;;;;;;;8.88;4.60;;;;;;;24.75;100.00;98936.63;1399560;103;21174;-80
2022/06/21 05:12:54;;;;;;;25.55;20.57;;;;;;;24.95;100.00;98940.56;1340870;106;21195;-81
2022/06/21 05:15:28;;;;;;;92.57;82.60;;;;;;;25.21;100.00;98940.27;1348644;106;21195;-77
2022/06/21 05:18:02;;;;;;;26.37;18.23;;;;;;;25.50;100.00;98942.99;1358148;106;21197;-78
2022/06/21 05:20:32;;;;;;;25.23;13.78;;;;;;;25.77;100.00;98935.99;1358033;106;21272;-75
2022/06/21 05:23:01;;;;;;;10.55;5.85;;;;;;;26.02;100.00;98950.63;1359307;105;21153;-72
2022/06/21 05:25:39;;;;;;;12.80;5.20;;;;;;;26.16;100.00;98952.08;1362931;105;21141;-74
2022/06/21 05:28:30;;;;;;;14.78;5.72;;;;;;;26.30;100.00;98951.00;1361708;104;21189;-74
2022/06/21 05:31:20;;;;;;;9.38;4.58;;;;;;;26.50;100.00;98947.06;1361430;105;21211;-74
2022/06/21 05:33:57;;;;;;;7.47;4.03;;;;;;;26.78;100.00;98944.97;1359761;105;21138;-75
2022/06/21 05:36:37;;;;;;;13.93;4.55;;;;;;;27.09;100.00;98950.73;1362018;105;21174;-74
2022/06/21 05:39:14;;;;;;;15.80;9.13;;;;;;;27.33;100.00;98953.94;1384765;103;21129;-75
2022/06/21 05:41:43;;;;;;;15.38;5.80;;;;;;;27.55;100.00;98954.58;1400043;103;21136;-75
2022/06/21 05:44:35;;;;;;;11.70;4.62;;;;;;;27.78;100.00;98941.03;1399218;103;21229;-74
2022/06/21 05:47:14;;;;;;;9.53;4.87;;;;;;;28.02;100.00;98944.94;1370249;105;21240;-76
2022/06/21 05:49:41;;;;;;;21.23;9.83;;;;;;;28.16;100.00;98942.11;1370977;103;21180;-76
2022/06/21 05:52:16;;;;;;;12.78;5.75;;;;;;;28.36;100.00;98942.75;1390247;102;21151;-75
2022/06/21 05:54:51;;;;;;;13.68;5.30;;;;;;;28.55;100.00;98939.23;1419527;101;21143;-75
2022/06/21 05:57:22;;;;;;;19.57;4.85;;;;;;;28.77;100.00;98938.41;1420293;100;21166;-74
2022/06/21 05:59:49;;;;;;;19.07;4.67;;;;;;;29.04;100.00;98935.17;1420372;101;21196;-79
2022/06/21 06:02:21;;;;;;;26.27;4.90;;;;;;;29.31;100.00;98936.93;1414309;101;21160;-75
2022/06/21 06:05:12;;;;;;;22.65;4.45;;;;;;;29.57;100.00;98943.70;1483946;96;21118;-74
2022/06/21 06:07:48;;;;;;;14.98;3.98;;;;;;;29.71;100.00;98948.02;1498040;96;21105;-74
2022/06/21 06:10:16;;;;;;;9.53;3.83;;;;;;;29.83;100.00;98945.99;1530185;93;21100;-75
2022/06/21 06:12:45;;;;;;;13.15;3.52;;;;;;;29.94;100.00;98937.32;1548973;88;21142;-78
2022/06/21 06:15:40;;;;;;;14.65;3.98;;;;;;;30.12;100.00;98932.02;1591636;89;21071;-76
2022/06/21 06:18:18;;;;;;;7.60;3.00;;;;;;;30.36;100.00;98927.34;1522767;94;21098;-75
2022/06/21 06:20:56;;;;;;;8.25;3.10;;;;;;;30.58;100.00;98929.13;1498756;96;21220;-74
2022/06/21 06:23:40;;;;;;;17.25;6.25;;;;;;;30.78;100.00;98922.00;1506892;94;21126;-73
2022/06/21 06:26:15;;;;;;;17.20;3.60;;;;;;;31.07;100.00;98916.25;1493641;96;21117;-76
2022/06/21 06:29:05;;;;;;;21.60;3.85;;;;;;;31.33;100.00;98925.09;1493532;95;21109;-75
2022/06/21 06:31:57;;;;;;;4.28;3.05;;;;;;;31.49;99.27;98923.38;1491470;96;21072;-78
2022/06/21 06:34:32;;;;;;;10.50;3.30;;;;;;;31.57;94.80;98911.91;1482785;94;21336;-75
2022/06/21 06:37:15;;;;;;;5.50;2.90;;;;;;;31.73;92.56;98915.76;1494161;96;21732;-81
2022/06/21 06:39:42;;;;;;;8.55;2.75;;;;;;;31.92;88.77;98910.27;1491581;96;21165;-80
2022/06/21 06:42:19;;;;;;;10.25;2.85;;;;;;;32.13;83.84;98906.09;1493769;96;21150;-81
2022/06/21 06:44:58;;;;;;;5.37;2.60;;;;;;;32.14;78.03;98905.75;1509212;95;21256;-80
2022/06/21 06:47:36;;;;;;;4.80;2.45;;;;;;;32.18;77.01;98906.47;1509164;95;21111;-80
2022/06/21 06:50:27;;;;;;;9.63;2.70;;;;;;;32.25;75.13;98901.14;1509392;95;21159;-81
2022/06/21 06:53:15;;;;;;;4.67;2.77;;;;;;;32.30;68.66;98908.73;1509302;95;21099;-78
2022/06/21 06:55:47;;;;;;;6.10;3.15;;;;;;;32.25;67.54;98899.74;1509559;95;21124;-80
2022/06/21 06:58:50;;;;;;;20.08;6.35;;;;;;;32.29;66.66;98903.48;1522564;94;21067;-76
2022/06/21 07:01:25;;;;;;;4.75;3.87;;;;;;;32.28;63.87;98899.03;1533806;94;21568;-79
2022/06/21 07:04:03;;;;;;;4.83;2.80;;;;;;;32.25;67.08;98889.95;1533582;94;21062;-77
2022/06/21 07:06:51;;;;;;;5.58;2.55;;;;;;;32.37;60.76;98888.60;1533578;94;21264;-78
2022/06/21 07:09:42;;;;;;;5.75;2.47;;;;;;;32.41;61.00;98881.73;1533497;93;21114;-78
2022/06/21 07:12:19;;;;;;;7.83;2.72;;;;;;;32.65;65.67;98889.38;1531649;93;21054;-79
2022/06/21 07:14:47;;;;;;;2.85;2.00;;;;;;;32.88;60.54;98883.61;1528604;93;21099;-76
2022/06/21 07:17:34;;;;;;;18.15;7.83;;;;;;;33.02;55.15;98885.23;1525403;94;21620;-79
2022/06/21 07:20:05;;;;;;;25.23;4.30;;;;;;;32.91;50.88;98880.68;1551606;91;21073;-78
2022/06/21 07:22:35;;;;;;;11.95;5.28;;;;;;;32.70;52.79;98877.38;1670988;86;21021;-77
2022/06/21 07:25:15;;;;;;;7.40;3.27;;;;;;;32.73;55.55;98872.49;1675044;85;21105;-80
2022/06/21 07:27:44;;;;;;;10.00;2.72;;;;;;;32.92;54.40;98879.53;1674958;86;21065;-81
2022/06/21 07:30:14;;;;;;;5.62;2.55;;;;;;;33.09;54.77;98875.67;1655110;86;21097;-80
2022/06/21 07:33:02;;;;;;;6.33;3.30;;;;;;;33.25;55.04;98875.81;1656491;86;21145;-79
2022/06/21 07:35:40;;;;;;;6.65;3.33;;;;;;;33.36;55.34;98874.19;1602216;89;21157;-79
2022/06/21 07:38:13;;;;;;;4.05;2.75;;;;;;;33.50;53.99;98866.78;1603168;90;21154;-80
2022/06/21 07:40:48;;;;;;;4.08;2.47;;;;;;;33.66;53.80;98866.90;1602641;90;21141;-77
2022/06/21 07:43:32;;;;;;;7.33;2.70;;;;;;;33.78;54.92;98859.86;1597451;90;21110;-78
2022/06/21 07:46:01;;;;;;;9.93;2.92;;;;;;;33.84;51.10;98861.25;1564474;92;21092;-76
2022/06/21 07:48:47;;;;;;;4.45;2.45;;;;;;;33.74;51.11;98863.75;1525661;94;21129;-75
2022/06/21 07:51:19;;;;;;;7.75;2.83;;;;;;;33.67;51.09;98859.54;1570928;91;21629;-77
2022/06/21 07:54:10;;;;;;;7.58;2.70;;;;;;;33.66;51.15;98857.92;1570694;91;21099;-77
2022/06/21 07:56:41;;;;;;;12.82;3.05;;;;;;;33.61;51.59;98858.73;1570359;90;21141;-79
2022/06/21 07:59:36;;;;;;;18.35;6.37;;;;;;;33.65;50.79;98851.23;1468226;97;21638;-80
2022/06/21 08:08:31;;;;;;;10.60;2.95;;;;;;;33.86;47.20;98842.68;1459030;98;21647;-76
2022/06/21 08:11:06;;;;;;;5.15;2.40;;;;;;;33.75;46.74;98842.37;1458766;98;21080;-80
2022/06/21 08:13:33;;;;;;;7.75;2.10;;;;;;;33.71;47.65;98849.84;1456610;98;21128;-76
2022/06/21 08:16:15;;;;;;;3.20;2.37;;;;;;;33.72;47.09;98847.88;1457125;98;21593;-78
2022/06/21 08:19:12;;;;;;;5.60;2.67;;;;;;;33.56;45.61;98837.37;1450004;97;21128;-76
2022/06/21 08:21:48;;;;;;;7.30;2.85;;;;;;;33.38;45.83;98827.02;1458317;98;21107;-73
2022/06/21 08:24:26;;;;;;;8.65;2.80;;;;;;;33.36;50.00;98826.56;1463563;97;21059;-80
2022/06/21 08:27:11;;;;;;;10.80;3.37;;;;;;;33.53;48.10;98824.05;1404684;102;21200;-79
2022/06/21 08:29:57;;;;;;;14.45;3.00;;;;;;;33.73;48.94;98812.45;1412708;100;21121;-78
2022/06/21 08:32:31;;;;;;;2.58;2.30;;;;;;;33.97;47.90;98812.95;1427709;99;21189;-77
2022/06/21 08:35:09;;;;;;;5.47;2.50;;;;;;;33.86;45.99;98812.66;1425774;100;21103;-78
2022/06/21 08:37:43;;;;;;;11.38;3.12;;;;;;;33.66;46.93;98815.05;1406197;101;21136;-78
2022/06/21 08:40:34;;;;;;;15.68;3.20;;;;;;;33.56;47.16;98806.55;1335606;107;21166;-79
2022/06/21 08:43:33;;;;;;;9.03;2.80;;;;;;;33.61;47.41;98804.89;1336287;107;21982;-77
2022/06/21 08:46:11;;;;;;;8.83;3.42;;;;;;;33.84;47.74;98800.98;1377226;104;21192;-78
2022/06/21 08:49:10;;;;;;;13.68;3.10;;;;;;;34.14;48.41;98795.00;1377637;103;21580;-80
2022/06/21 08:52:26;;;;;;;5.80;2.70;;;;;;;34.45;45.24;98797.63;1361099;105;21141;-78
2022/06/21 08:55:07;;;;;;;7.58;2.70;;;;;;;34.45;44.42;98788.41;1363524;99;21130;-76
2022/06/21 08:58:02;;;;;;;;;;;;;;;34.20;44.60;98792.77;1426827;101;21157;-80
2022/06/21 09:00:38;;;;;;;59.45;8.20;;;;;;;34.12;46.77;98784.73;1403141;102;20190;-79
2022/06/21 09:03:34;;;;;;;7.20;2.58;;;;;;;34.16;44.11;98786.23;1445257;99;21152;-80
2022/06/21 09:06:25;;;;;;;9.83;3.35;;;;;;;34.02;44.46;98783.85;1422679;99;21088;-78
2022/06/21 09:09:10;;;;;;;7.45;2.70;;;;;;;33.99;46.20;98783.16;1423891;101;21156;-79
2022/06/21 09:11:48;;;;;;;6.30;2.98;;;;;;;34.15;46.18;98775.58;1432767;99;21113;-78
2022/06/21 09:14:50;;;;;;;9.63;3.20;;;;;;;34.47;46.16;98767.81;1386772;103;21697;-79
2022/06/21 09:17:27;;;;;;;;;;;;;;;34.73;46.83;98759.67;1395266;103;21191;-79
2022/06/21 09:20:05;;;;;;;15.58;3.10;;;;;;;34.96;46.28;98766.84;1392740;103;20184;-78
2022/06/21 09:23:00;;;;;;;10.53;2.98;;;;;;;34.97;43.89;98750.22;1392979;103;21254;-78
2022/06/21 09:25:35;;;;;;;10.43;3.00;;;;;;;34.83;43.63;98743.45;1392906;103;21084;-79
2022/06/21 09:28:27;;;;;;;17.20;3.70;;;;;;;34.72;43.42;98740.39;1391280;103;21163;-79
2022/06/21 09:31:02;;;;;;;4.70;2.40;;;;;;;34.70;43.49;98740.75;1390991;103;21705;-77
2022/06/21 09:33:53;;;;;;;5.83;2.45;;;;;;;34.61;42.59;98733.89;1362020;101;21152;-78
2022/06/21 09:36:42;;;;;;;14.78;3.40;;;;;;;34.65;45.46;98733.17;1429876;98;21171;-76
2022/06/21 09:39:15;;;;;;;12.73;3.30;;;;;;;34.79;45.45;98720.91;1449475;98;21173;-78
2022/06/21 09:41:59;;;;;;;18.92;3.80;;;;;;;34.91;46.04;98711.55;1451942;97;21084;-81
2022/06/21 09:44:38;;;;;;;24.70;4.40;;;;;;;34.89;44.49;98711.92;1460319;98;21146;-79
2022/06/21 09:47:14;;;;;;;8.48;2.87;;;;;;;34.84;45.95;98711.39;1459855;98;21105;-79
2022/06/21 09:49:53;;;;;;;17.32;3.50;;;;;;;35.04;47.19;98713.64;1464573;98;21261;-75
2022/06/21 09:52:37;;;;;;;5.83;3.00;;;;;;;35.23;43.58;98726.33;1506828;94;21048;-75
2022/06/21 09:55:17;;;;;;;6.15;2.60;;;;;;;35.04;43.35;98717.25;1517460;94;21089;-77
2022/06/21 09:58:02;;;;;;;6.10;2.60;;;;;;;34.90;43.89;98709.91;1547264;93;21948;-77
2022/06/21 10:00:44;;;;;;;19.42;3.95;;;;;;;34.88;45.23;98710.28;1547798;93;21139;-80
2022/06/21 10:03:35;;;;;;;5.23;2.70;;;;;;;34.85;42.66;98699.80;1532848;93;21126;-77
2022/06/21 10:06:27;;;;;;;6.97;2.95;;;;;;;34.78;44.47;98694.03;1546329;93;21103;-78
2022/06/21 10:09:26;;;;;;;4.22;2.70;;;;;;;34.87;44.15;98690.42;1547184;93;21134;-76
2022/06/21 10:12:11;;;;;;;12.47;3.08;;;;;;;34.60;43.26;98697.20;1543735;93;21237;-79
2022/06/21 10:15:21;;;;;;;20.08;4.22;;;;;;;34.33;43.27;98690.52;1494846;96;21703;-79
2022/06/21 10:18:19;;;;;;;11.40;2.52;;;;;;;34.23;44.25;98690.48;1471417;96;21663;-79
2022/06/21 10:20:56;;;;;;;3.87;2.77;;;;;;;34.24;42.66;98688.48;1471574;97;21124;-80
2022/06/21 10:23:52;;;;;;;7.92;2.83;;;;;;;34.39;43.16;98680.66;1466981;97;21181;-76
2022/06/21 10:26:53;;;;;;;8.88;3.22;;;;;;;34.61;44.50;98680.56;1440801;99;21608;-77
2022/06/21 10:30:01;;;;;;;6.20;2.75;;;;;;;34.77;43.08;98669.93;1457410;98;21166;-80
2022/06/21 10:32:45;;;;;;;11.60;2.90;;;;;;;34.59;43.02;98675.11;1490018;94;21559;-78
2022/06/21 10:35:48;;;;;;;10.32;2.72;;;;;;;34.55;42.89;98679.23;1460356;97;21224;-77
2022/06/21 10:38:38;;;;;;;8.58;3.08;;;;;;;34.55;43.70;98668.02;1496530;96;21060;-78
2022/06/21 10:41:27;;;;;;;9.53;2.70;;;;;;;34.49;42.23;98673.66;1496142;96;21120;-82
2022/06/21 10:44:09;;;;;;;4.83;3.22;;;;;;;34.46;42.69;98669.38;1494400;95;21088;-75
2022/06/21 10:46:44;;;;;;;8.50;2.95;;;;;;;34.55;41.45;98662.39;1492058;95;21101;-79
2022/06/21 10:49:43;;;;;;;5.53;2.75;;;;;;;34.67;41.69;98657.27;1492561;96;21113;-85
2022/06/21 10:52:44;;;;;;;13.48;3.40;;;;;;;34.84;41.72;98652.44;1517510;93;21150;-83
2022/06/21 10:55:22;;;;;;;22.45;4.03;;;;;;;35.04;42.10;98656.88;1541138;93;21093;-82
2022/06/21 10:58:15;;;;;;;6.78;2.80;;;;;;;34.70;41.37;98648.72;1538884;93;21101;-82
2022/06/21 11:04:06;;;;;;;17.42;5.15;;;;;;;34.62;43.61;98632.29;1515158;94;21082;-82
2022/06/21 11:07:07;;;;;;;7.05;3.08;;;;;;;34.89;44.31;98624.88;1512991;94;21108;-75
2022/06/21 11:09:53;;;;;;;5.25;2.62;;;;;;;35.25;42.12;98638.28;1518085;94;21109;-81
2022/06/21 11:12:52;;;;;;;7.75;3.00;;;;;;;35.32;40.74;98630.59;1515041;93;21110;-80
2022/06/21 11:15:27;;;;;;;8.38;3.05;;;;;;;35.28;40.53;98623.50;1473316;96;21138;-78
2022/06/21 11:18:25;;;;;;;7.30;2.92;;;;;;;35.25;41.27;98626.23;1478700;97;21109;-82
2022/06/21 11:21:18;;;;;;;5.30;3.65;;;;;;;35.17;42.60;98623.26;1476554;96;21078;-81
2022/06/21 11:24:29;;;;;;;8.63;3.35;;;;;;;35.17;41.64;98616.84;1477642;97;21077;-83
2022/06/21 11:27:27;;;;;;;11.60;3.15;;;;;;;34.85;40.16;98623.16;1478480;97;21562;-81
2022/06/21 11:30:19;;;;;;;8.80;3.08;;;;;;;34.36;41.58;98619.66;1475351;97;21725;-83
2022/06/21 11:33:04;;;;;;;24.87;4.70;;;;;;;34.30;42.19;98608.51;1489090;95;21126;-76
2022/06/21 11:35:54;;;;;;;11.85;3.37;;;;;;;34.39;41.04;98609.72;1476107;96;21648;-76
2022/06/21 11:38:51;;;;;;;8.75;3.10;;;;;;;34.42;41.22;98589.33;1464008;97;21408;-81
2022/06/21 11:44:29;;;;;;;11.95;3.00;;;;;;;34.42;40.35;98595.77;1518608;94;21016;-80
2022/06/21 11:47:11;;;;;;;14.85;3.35;;;;;;;34.34;40.77;98597.38;1515436;95;21092;-79
2022/06/21 11:49:54;;;;;;;6.90;2.65;;;;;;;34.34;40.33;98599.58;1518222;94;21059;-80
2022/06/21 11:52:45;;;;;;;5.35;2.40;;;;;;;34.42;41.01;98589.33;1518557;94;21186;-82
2022/06/21 11:55:29;;;;;;;14.98;3.75;;;;;;;34.67;40.18;98590.47;1488425;96;21121;-80
2022/06/21 11:58:24;;;;;;;8.68;3.22;;;;;;;34.83;40.06;98581.45;1518322;93;21193;-79
2022/06/21 12:01:03;;;;;;;8.28;2.87;;;;;;;35.11;41.37;98575.57;1551719;93;21079;-79
2022/06/21 12:03:35;;;;;;;9.03;2.67;;;;;;;35.47;41.19;98567.06;1551939;93;21136;-83
2022/06/21 12:06:20;;;;;;;5.65;2.40;;;;;;;35.50;39.79;98575.56;1538474;93;21115;-82
2022/06/21 12:08:53;;;;;;;11.55;3.35;;;;;;;35.43;40.57;98569.78;1521130;94;21122;-84
2022/06/21 12:11:42;;;;;;;11.33;2.98;;;;;;;35.31;38.44;98565.17;1529800;93;21598;-79
2022/06/21 12:14:39;;;;;;;4.83;2.47;;;;;;;34.79;37.73;98557.52;1536657;91;21112;-82
2022/06/21 12:17:23;;;;;;;10.75;3.33;;;;;;;34.25;38.52;98561.11;1541426;93;21191;-83
2022/06/21 12:19:57;;;;;;;5.90;2.95;;;;;;;34.17;38.60;98555.06;1528693;93;21117;-87
2022/06/21 12:22:44;;;;;;;3.98;2.50;;;;;;;34.09;39.88;98559.70;1533371;93;21154;-79
2022/06/21 12:25:12;;;;;;;3.47;2.40;;;;;;;33.86;40.18;98556.16;1534247;93;21146;-79
2022/06/21 12:27:39;;;;;;;8.25;2.87;;;;;;;33.61;40.87;98551.89;1535476;93;21054;-80
2022/06/21 12:30:21;;;;;;;4.55;2.72;;;;;;;33.62;42.50;98552.10;1534267;93;21181;-82
2022/06/21 12:32:52;;;;;;;17.60;4.20;;;;;;;33.80;41.99;98545.00;1552421;92;21105;-78
2022/06/21 12:35:23;;;;;;;9.70;2.37;;;;;;;33.98;42.11;98542.63;1531913;94;21158;-79
2022/06/21 12:37:57;;;;;;;6.45;2.75;;;;;;;33.96;40.60;98532.94;1528243;93;21035;-85
2022/06/21 12:40:33;;;;;;;3.45;2.47;;;;;;;33.53;40.82;98536.06;1560950;92;21117;-82